sensor_id;sensor_type;location;lat;lon;timestamp;P1;durP1;ratioP1;P2;durP2;ratioP2
39256;SDS011;67272;48.066;11.038;2023-07-16T00:01:39;7.07;;;6.40;;
39256;SDS011;67272;48.066;11.038;2023-07-16T00:04:08;8.40;;;6.50;;
39256;SDS011;67272;48.066;11.038;2023-07-16T00:06:35;6.22;;;5.63;;
39256;SDS011;67272;48.066;11.038;2023-07-16T00:09:01;6.72;;;6.13;;
39256;SDS011;67272;48.066;11.038;2023-07-16T00:11:28;6.70;;;5.85;;
39256;SDS011;67272;48.066;11.038;2023-07-16T00:13:58;7.47;;;6.70;;
39256;SDS011;67272;48.066;11.038;2023-07-16T00:16:27;8.00;;;6.30;;
39256;SDS011;67272;48.066;11.038;2023-07-16T00:18:53;6.93;;;6.18;;
39256;SDS011;67272;48.066;11.038;2023-07-16T00:21:20;6.25;;;5.65;;
39256;SDS011;67272;48.066;11.038;2023-07-16T00:23:49;7.15;;;5.88;;
39256;SDS011;67272;48.066;11.038;2023-07-16T00:26:16;7.82;;;6.22;;
39256;SDS011;67272;48.066;11.038;2023-07-16T00:28:42;6.63;;;6.03;;
39256;SDS011;67272;48.066;11.038;2023-07-16T00:31:21;6.45;;;5.75;;
39256;SDS011;67272;48.066;11.038;2023-07-16T00:33:48;6.55;;;5.72;;
39256;SDS011;67272;48.066;11.038;2023-07-16T00:36:14;7.25;;;6.55;;
39256;SDS011;67272;48.066;11.038;2023-07-16T00:38:40;6.65;;;6.05;;
39256;SDS011;67272;48.066;11.038;2023-07-16T00:41:17;6.45;;;5.85;;
39256;SDS011;67272;48.066;11.038;2023-07-16T00:43:44;6.70;;;6.10;;
39256;SDS011;67272;48.066;11.038;2023-07-16T00:46:10;7.00;;;6.30;;
39256;SDS011;67272;48.066;11.038;2023-07-16T00:48:37;9.30;;;6.20;;
39256;SDS011;67272;48.066;11.038;2023-07-16T00:53:55;6.30;;;5.70;;
39256;SDS011;67272;48.066;11.038;2023-07-16T00:56:21;8.13;;;6.07;;
39256;SDS011;67272;48.066;11.038;2023-07-16T00:58:48;8.43;;;5.60;;
39256;SDS011;67272;48.066;11.038;2023-07-16T01:01:14;5.97;;;5.38;;
39256;SDS011;67272;48.066;11.038;2023-07-16T01:03:44;7.53;;;6.68;;
39256;SDS011;67272;48.066;11.038;2023-07-16T01:06:18;6.93;;;5.80;;
39256;SDS011;67272;48.066;11.038;2023-07-16T01:11:22;6.22;;;5.53;;
39256;SDS011;67272;48.066;11.038;2023-07-16T01:13:49;6.32;;;5.72;;
39256;SDS011;67272;48.066;11.038;2023-07-16T01:16:23;7.03;;;5.80;;
39256;SDS011;67272;48.066;11.038;2023-07-16T01:18:50;9.60;;;6.03;;
39256;SDS011;67272;48.066;11.038;2023-07-16T01:21:18;6.07;;;5.57;;
39256;SDS011;67272;48.066;11.038;2023-07-16T01:26:51;8.43;;;6.13;;
39256;SDS011;67272;48.066;11.038;2023-07-16T01:31:56;6.93;;;6.32;;
39256;SDS011;67272;48.066;11.038;2023-07-16T01:34:26;8.15;;;5.90;;
39256;SDS011;67272;48.066;11.038;2023-07-16T01:36:57;6.50;;;5.88;;
39256;SDS011;67272;48.066;11.038;2023-07-16T01:39:26;7.28;;;6.57;;
39256;SDS011;67272;48.066;11.038;2023-07-16T01:41:59;6.28;;;5.45;;
39256;SDS011;67272;48.066;11.038;2023-07-16T01:44:26;6.68;;;6.00;;
39256;SDS011;67272;48.066;11.038;2023-07-16T01:49:32;6.25;;;5.65;;
39256;SDS011;67272;48.066;11.038;2023-07-16T01:52:00;6.50;;;5.05;;
39256;SDS011;67272;48.066;11.038;2023-07-16T01:54:27;5.82;;;5.32;;
39256;SDS011;67272;48.066;11.038;2023-07-16T01:56:53;4.85;;;4.10;;
39256;SDS011;67272;48.066;11.038;2023-07-16T01:59:19;4.30;;;3.90;;
39256;SDS011;67272;48.066;11.038;2023-07-16T02:01:48;4.55;;;4.15;;
39256;SDS011;67272;48.066;11.038;2023-07-16T02:04:18;4.90;;;4.50;;
39256;SDS011;67272;48.066;11.038;2023-07-16T02:06:44;4.40;;;4.00;;
39256;SDS011;67272;48.066;11.038;2023-07-16T02:09:16;4.40;;;4.00;;
39256;SDS011;67272;48.066;11.038;2023-07-16T02:11:42;4.55;;;4.15;;
39256;SDS011;67272;48.066;11.038;2023-07-16T02:14:09;4.53;;;4.10;;
39256;SDS011;67272;48.066;11.038;2023-07-16T02:16:38;5.18;;;4.78;;
39256;SDS011;67272;48.066;11.038;2023-07-16T02:19:05;4.30;;;3.95;;
39256;SDS011;67272;48.066;11.038;2023-07-16T02:21:31;4.57;;;4.13;;
39256;SDS011;67272;48.066;11.038;2023-07-16T02:23:57;4.63;;;4.18;;
39256;SDS011;67272;48.066;11.038;2023-07-16T02:26:27;6.85;;;5.05;;
39256;SDS011;67272;48.066;11.038;2023-07-16T02:29:02;4.80;;;4.30;;
39256;SDS011;67272;48.066;11.038;2023-07-16T02:31:34;4.88;;;4.47;;
39256;SDS011;67272;48.066;11.038;2023-07-16T02:34:01;7.03;;;4.90;;
39256;SDS011;67272;48.066;11.038;2023-07-16T02:36:32;4.93;;;4.13;;
39256;SDS011;67272;48.066;11.038;2023-07-16T02:38:58;3.88;;;3.58;;
39256;SDS011;67272;48.066;11.038;2023-07-16T02:41:27;4.90;;;4.40;;
39256;SDS011;67272;48.066;11.038;2023-07-16T02:44:00;3.90;;;3.60;;
39256;SDS011;67272;48.066;11.038;2023-07-16T02:46:27;4.55;;;4.05;;
39256;SDS011;67272;48.066;11.038;2023-07-16T02:48:54;4.47;;;3.70;;
39256;SDS011;67272;48.066;11.038;2023-07-16T02:51:23;4.35;;;3.67;;
39256;SDS011;67272;48.066;11.038;2023-07-16T02:53:50;4.00;;;3.70;;
39256;SDS011;67272;48.066;11.038;2023-07-16T02:56:19;3.83;;;3.53;;
39256;SDS011;67272;48.066;11.038;2023-07-16T02:58:51;3.78;;;3.47;;
39256;SDS011;67272;48.066;11.038;2023-07-16T03:01:21;3.65;;;3.35;;
39256;SDS011;67272;48.066;11.038;2023-07-16T03:03:47;4.30;;;3.65;;
39256;SDS011;67272;48.066;11.038;2023-07-16T03:06:15;3.95;;;3.55;;
39256;SDS011;67272;48.066;11.038;2023-07-16T03:08:42;4.10;;;3.80;;
39256;SDS011;67272;48.066;11.038;2023-07-16T03:11:10;4.03;;;3.63;;
39256;SDS011;67272;48.066;11.038;2023-07-16T03:13:37;3.80;;;3.50;;
39256;SDS011;67272;48.066;11.038;2023-07-16T03:16:04;3.85;;;3.17;;
39256;SDS011;67272;48.066;11.038;2023-07-16T03:18:30;3.75;;;3.33;;
39256;SDS011;67272;48.066;11.038;2023-07-16T03:20:57;3.65;;;3.35;;
39256;SDS011;67272;48.066;11.038;2023-07-16T03:23:23;4.80;;;3.38;;
39256;SDS011;67272;48.066;11.038;2023-07-16T03:25:51;4.15;;;3.75;;
39256;SDS011;67272;48.066;11.038;2023-07-16T03:28:20;3.33;;;3.13;;
39256;SDS011;67272;48.066;11.038;2023-07-16T03:30:50;4.13;;;3.70;;
39256;SDS011;67272;48.066;11.038;2023-07-16T03:33:18;4.10;;;3.70;;
39256;SDS011;67272;48.066;11.038;2023-07-16T03:35:48;3.45;;;3.15;;
39256;SDS011;67272;48.066;11.038;2023-07-16T03:38:17;3.15;;;2.95;;
39256;SDS011;67272;48.066;11.038;2023-07-16T03:40:46;3.92;;;3.63;;
39256;SDS011;67272;48.066;11.038;2023-07-16T03:43:13;3.78;;;3.35;;
39256;SDS011;67272;48.066;11.038;2023-07-16T03:45:40;3.92;;;3.53;;
39256;SDS011;67272;48.066;11.038;2023-07-16T03:48:06;3.72;;;3.22;;
39256;SDS011;67272;48.066;11.038;2023-07-16T03:50:33;4.18;;;3.30;;
39256;SDS011;67272;48.066;11.038;2023-07-16T03:53:00;4.13;;;3.42;;
39256;SDS011;67272;48.066;11.038;2023-07-16T03:55:32;3.67;;;3.30;;
39256;SDS011;67272;48.066;11.038;2023-07-16T03:57:58;3.53;;;3.22;;
39256;SDS011;67272;48.066;11.038;2023-07-16T04:00:25;3.13;;;2.92;;
39256;SDS011;67272;48.066;11.038;2023-07-16T04:02:52;3.28;;;2.97;;
39256;SDS011;67272;48.066;11.038;2023-07-16T04:05:18;3.88;;;3.20;;
39256;SDS011;67272;48.066;11.038;2023-07-16T04:07:49;3.22;;;2.88;;
39256;SDS011;67272;48.066;11.038;2023-07-16T04:10:15;3.08;;;2.88;;
39256;SDS011;67272;48.066;11.038;2023-07-16T04:12:41;3.42;;;2.58;;
39256;SDS011;67272;48.066;11.038;2023-07-16T04:15:11;3.95;;;2.65;;
39256;SDS011;67272;48.066;11.038;2023-07-16T04:17:37;2.60;;;2.40;;
39256;SDS011;67272;48.066;11.038;2023-07-16T04:20:04;3.42;;;2.33;;
39256;SDS011;67272;48.066;11.038;2023-07-16T04:22:32;2.40;;;2.20;;
39256;SDS011;67272;48.066;11.038;2023-07-16T04:24:59;2.33;;;2.13;;
39256;SDS011;67272;48.066;11.038;2023-07-16T04:27:34;2.08;;;1.80;;
39256;SDS011;67272;48.066;11.038;2023-07-16T04:30:01;2.42;;;2.22;;
39256;SDS011;67272;48.066;11.038;2023-07-16T04:32:30;2.15;;;1.95;;
39256;SDS011;67272;48.066;11.038;2023-07-16T04:34:59;2.38;;;2.17;;
39256;SDS011;67272;48.066;11.038;2023-07-16T04:37:26;2.35;;;2.03;;
39256;SDS011;67272;48.066;11.038;2023-07-16T04:39:55;2.33;;;1.90;;
39256;SDS011;67272;48.066;11.038;2023-07-16T04:42:21;2.50;;;2.10;;
39256;SDS011;67272;48.066;11.038;2023-07-16T04:44:54;2.42;;;2.22;;
39256;SDS011;67272;48.066;11.038;2023-07-16T04:47:20;2.40;;;2.20;;
39256;SDS011;67272;48.066;11.038;2023-07-16T04:52:39;2.35;;;2.15;;
39256;SDS011;67272;48.066;11.038;2023-07-16T04:55:05;3.60;;;2.22;;
39256;SDS011;67272;48.066;11.038;2023-07-16T04:57:32;2.38;;;2.17;;
39256;SDS011;67272;48.066;11.038;2023-07-16T04:59:59;2.42;;;2.22;;
39256;SDS011;67272;48.066;11.038;2023-07-16T05:02:32;2.50;;;2.30;;
39256;SDS011;67272;48.066;11.038;2023-07-16T05:04:59;2.38;;;2.17;;
39256;SDS011;67272;48.066;11.038;2023-07-16T05:07:28;2.50;;;2.30;;
39256;SDS011;67272;48.066;11.038;2023-07-16T05:09:57;3.05;;;2.33;;
39256;SDS011;67272;48.066;11.038;2023-07-16T05:12:26;3.00;;;2.80;;
39256;SDS011;67272;48.066;11.038;2023-07-16T05:14:59;3.13;;;2.63;;
39256;SDS011;67272;48.066;11.038;2023-07-16T05:17:34;2.90;;;2.40;;
39256;SDS011;67272;48.066;11.038;2023-07-16T05:20:07;1.90;;;1.80;;
39256;SDS011;67272;48.066;11.038;2023-07-16T05:22:43;2.50;;;2.22;;
39256;SDS011;67272;48.066;11.038;2023-07-16T05:25:10;2.35;;;2.10;;
39256;SDS011;67272;48.066;11.038;2023-07-16T05:27:36;2.58;;;1.95;;
39256;SDS011;67272;48.066;11.038;2023-07-16T05:30:02;3.38;;;2.30;;
39256;SDS011;67272;48.066;11.038;2023-07-16T05:32:32;2.58;;;2.25;;
39256;SDS011;67272;48.066;11.038;2023-07-16T05:34:58;2.30;;;2.10;;
39256;SDS011;67272;48.066;11.038;2023-07-16T05:37:30;2.55;;;2.35;;
39256;SDS011;67272;48.066;11.038;2023-07-16T05:39:56;2.60;;;2.40;;
39256;SDS011;67272;48.066;11.038;2023-07-16T05:42:22;2.97;;;2.60;;
39256;SDS011;67272;48.066;11.038;2023-07-16T05:44:49;2.70;;;2.50;;
39256;SDS011;67272;48.066;11.038;2023-07-16T05:47:15;2.42;;;2.20;;
39256;SDS011;67272;48.066;11.038;2023-07-16T05:49:41;2.65;;;2.35;;
39256;SDS011;67272;48.066;11.038;2023-07-16T05:52:11;2.90;;;2.40;;
39256;SDS011;67272;48.066;11.038;2023-07-16T05:54:37;2.53;;;2.25;;
39256;SDS011;67272;48.066;11.038;2023-07-16T05:57:09;2.95;;;2.50;;
39256;SDS011;67272;48.066;11.038;2023-07-16T05:59:35;3.65;;;2.40;;
39256;SDS011;67272;48.066;11.038;2023-07-16T06:02:02;2.30;;;2.10;;
39256;SDS011;67272;48.066;11.038;2023-07-16T06:04:29;2.40;;;2.15;;
39256;SDS011;67272;48.066;11.038;2023-07-16T06:06:56;2.47;;;2.28;;
39256;SDS011;67272;48.066;11.038;2023-07-16T06:09:23;2.72;;;2.53;;
39256;SDS011;67272;48.066;11.038;2023-07-16T06:11:49;2.30;;;2.10;;
39256;SDS011;67272;48.066;11.038;2023-07-16T06:14:21;3.88;;;2.50;;
39256;SDS011;67272;48.066;11.038;2023-07-16T06:16:48;2.65;;;2.45;;
39256;SDS011;67272;48.066;11.038;2023-07-16T06:19:14;2.55;;;2.35;;
39256;SDS011;67272;48.066;11.038;2023-07-16T06:21:40;3.65;;;2.13;;
39256;SDS011;67272;48.066;11.038;2023-07-16T06:24:06;2.97;;;2.22;;
39256;SDS011;67272;48.066;11.038;2023-07-16T06:26:32;2.63;;;2.42;;
39256;SDS011;67272;48.066;11.038;2023-07-16T06:29:04;2.38;;;2.13;;
39256;SDS011;67272;48.066;11.038;2023-07-16T06:31:31;2.25;;;2.05;;
39256;SDS011;67272;48.066;11.038;2023-07-16T06:33:57;2.38;;;2.17;;
39256;SDS011;67272;48.066;11.038;2023-07-16T06:36:26;2.40;;;2.20;;
39256;SDS011;67272;48.066;11.038;2023-07-16T06:38:52;3.08;;;2.47;;
39256;SDS011;67272;48.066;11.038;2023-07-16T06:41:18;2.30;;;2.10;;
39256;SDS011;67272;48.066;11.038;2023-07-16T06:43:44;2.35;;;2.10;;
39256;SDS011;67272;48.066;11.038;2023-07-16T06:46:11;2.53;;;2.05;;
39256;SDS011;67272;48.066;11.038;2023-07-16T06:48:37;1.98;;;1.88;;
39256;SDS011;67272;48.066;11.038;2023-07-16T06:51:03;1.80;;;1.70;;
39256;SDS011;67272;48.066;11.038;2023-07-16T06:53:30;1.70;;;1.60;;
39256;SDS011;67272;48.066;11.038;2023-07-16T06:55:56;1.90;;;1.80;;
39256;SDS011;67272;48.066;11.038;2023-07-16T06:58:24;1.60;;;1.50;;
39256;SDS011;67272;48.066;11.038;2023-07-16T07:00:57;1.90;;;1.60;;
39256;SDS011;67272;48.066;11.038;2023-07-16T07:03:23;1.73;;;1.63;;
39256;SDS011;67272;48.066;11.038;2023-07-16T07:08:33;1.80;;;1.70;;
39256;SDS011;67272;48.066;11.038;2023-07-16T07:10:59;1.73;;;1.63;;
39256;SDS011;67272;48.066;11.038;2023-07-16T07:13:25;2.03;;;1.77;;
39256;SDS011;67272;48.066;11.038;2023-07-16T07:15:52;2.70;;;1.60;;
39256;SDS011;67272;48.066;11.038;2023-07-16T07:18:18;1.48;;;1.38;;
39256;SDS011;67272;48.066;11.038;2023-07-16T07:20:45;1.70;;;1.60;;
39256;SDS011;67272;48.066;11.038;2023-07-16T07:23:12;1.60;;;1.50;;
39256;SDS011;67272;48.066;11.038;2023-07-16T07:25:41;1.98;;;1.40;;
39256;SDS011;67272;48.066;11.038;2023-07-16T07:28:08;1.50;;;1.40;;
39256;SDS011;67272;48.066;11.038;2023-07-16T07:30:34;1.80;;;1.70;;
39256;SDS011;67272;48.066;11.038;2023-07-16T07:33:00;1.77;;;1.42;;
39256;SDS011;67272;48.066;11.038;2023-07-16T07:35:26;2.05;;;1.85;;
39256;SDS011;67272;48.066;11.038;2023-07-16T07:37:52;2.75;;;1.70;;
39256;SDS011;67272;48.066;11.038;2023-07-16T07:40:21;2.00;;;1.80;;
39256;SDS011;67272;48.066;11.038;2023-07-16T07:42:47;1.98;;;1.63;;
39256;SDS011;67272;48.066;11.038;2023-07-16T07:45:14;1.75;;;1.65;;
39256;SDS011;67272;48.066;11.038;2023-07-16T07:47:41;1.67;;;1.58;;
39256;SDS011;67272;48.066;11.038;2023-07-16T07:50:07;1.88;;;1.77;;
39256;SDS011;67272;48.066;11.038;2023-07-16T07:52:33;1.60;;;1.50;;
39256;SDS011;67272;48.066;11.038;2023-07-16T07:55:00;1.75;;;1.50;;
39256;SDS011;67272;48.066;11.038;2023-07-16T07:57:26;1.85;;;1.60;;
39256;SDS011;67272;48.066;11.038;2023-07-16T07:59:52;1.52;;;1.40;;
39256;SDS011;67272;48.066;11.038;2023-07-16T08:02:25;1.75;;;1.60;;
39256;SDS011;67272;48.066;11.038;2023-07-16T08:04:52;2.05;;;1.80;;
39256;SDS011;67272;48.066;11.038;2023-07-16T08:07:18;1.70;;;1.60;;
39256;SDS011;67272;48.066;11.038;2023-07-16T08:09:48;1.77;;;1.55;;
39256;SDS011;67272;48.066;11.038;2023-07-16T08:12:14;1.75;;;1.40;;
39256;SDS011;67272;48.066;11.038;2023-07-16T08:14:41;1.90;;;1.65;;
39256;SDS011;67272;48.066;11.038;2023-07-16T08:17:07;1.45;;;1.30;;
39256;SDS011;67272;48.066;11.038;2023-07-16T08:19:33;2.00;;;1.50;;
39256;SDS011;67272;48.066;11.038;2023-07-16T08:22:03;1.60;;;1.50;;
39256;SDS011;67272;48.066;11.038;2023-07-16T08:24:29;1.55;;;1.30;;
39256;SDS011;67272;48.066;11.038;2023-07-16T08:26:55;1.70;;;1.60;;
39256;SDS011;67272;48.066;11.038;2023-07-16T08:29:21;1.50;;;1.40;;
39256;SDS011;67272;48.066;11.038;2023-07-16T08:31:47;2.00;;;1.70;;
39256;SDS011;67272;48.066;11.038;2023-07-16T08:34:13;1.73;;;1.55;;
39256;SDS011;67272;48.066;11.038;2023-07-16T08:36:40;1.58;;;1.48;;
39256;SDS011;67272;48.066;11.038;2023-07-16T08:39:07;1.70;;;1.60;;
39256;SDS011;67272;48.066;11.038;2023-07-16T08:41:33;2.00;;;1.70;;
39256;SDS011;67272;48.066;11.038;2023-07-16T08:44:00;1.88;;;1.45;;
39256;SDS011;67272;48.066;11.038;2023-07-16T08:46:26;1.50;;;1.30;;
39256;SDS011;67272;48.066;11.038;2023-07-16T08:48:52;1.45;;;1.35;;
39256;SDS011;67272;48.066;11.038;2023-07-16T08:51:19;1.58;;;1.48;;
39256;SDS011;67272;48.066;11.038;2023-07-16T08:53:46;1.63;;;1.52;;
39256;SDS011;67272;48.066;11.038;2023-07-16T08:56:13;1.60;;;1.50;;
39256;SDS011;67272;48.066;11.038;2023-07-16T08:58:39;1.40;;;1.30;;
39256;SDS011;67272;48.066;11.038;2023-07-16T09:01:10;1.40;;;1.30;;
39256;SDS011;67272;48.066;11.038;2023-07-16T09:03:36;2.08;;;1.55;;
39256;SDS011;67272;48.066;11.038;2023-07-16T09:06:03;1.70;;;1.60;;
39256;SDS011;67272;48.066;11.038;2023-07-16T09:08:30;1.58;;;1.40;;
39256;SDS011;67272;48.066;11.038;2023-07-16T09:10:57;1.77;;;1.65;;
39256;SDS011;67272;48.066;11.038;2023-07-16T09:13:23;2.17;;;1.42;;
39256;SDS011;67272;48.066;11.038;2023-07-16T09:15:53;1.98;;;1.63;;
39256;SDS011;67272;48.066;11.038;2023-07-16T09:18:20;1.63;;;1.52;;
39256;SDS011;67272;48.066;11.038;2023-07-16T09:20:48;1.60;;;1.50;;
39256;SDS011;67272;48.066;11.038;2023-07-16T09:23:17;2.00;;;1.58;;
39256;SDS011;67272;48.066;11.038;2023-07-16T09:25:43;1.90;;;1.70;;
39256;SDS011;67272;48.066;11.038;2023-07-16T09:28:10;1.67;;;1.50;;
39256;SDS011;67272;48.066;11.038;2023-07-16T09:30:36;2.05;;;1.90;;
39256;SDS011;67272;48.066;11.038;2023-07-16T09:33:09;1.80;;;1.70;;
39256;SDS011;67272;48.066;11.038;2023-07-16T09:35:36;2.20;;;2.00;;
39256;SDS011;67272;48.066;11.038;2023-07-16T09:38:02;2.00;;;1.90;;
39256;SDS011;67272;48.066;11.038;2023-07-16T09:40:29;2.80;;;1.83;;
39256;SDS011;67272;48.066;11.038;2023-07-16T09:42:55;1.98;;;1.88;;
39256;SDS011;67272;48.066;11.038;2023-07-16T09:45:22;2.25;;;1.80;;
39256;SDS011;67272;48.066;11.038;2023-07-16T09:47:48;1.90;;;1.80;;
39256;SDS011;67272;48.066;11.038;2023-07-16T09:50:15;1.98;;;1.88;;
39256;SDS011;67272;48.066;11.038;2023-07-16T09:52:47;2.10;;;1.98;;
39256;SDS011;67272;48.066;11.038;2023-07-16T09:55:24;1.90;;;1.80;;
39256;SDS011;67272;48.066;11.038;2023-07-16T09:57:55;1.77;;;1.67;;
39256;SDS011;67272;48.066;11.038;2023-07-16T10:00:22;2.47;;;2.00;;
39256;SDS011;67272;48.066;11.038;2023-07-16T10:02:49;1.70;;;1.60;;
39256;SDS011;67272;48.066;11.038;2023-07-16T10:05:18;1.75;;;1.65;;
39256;SDS011;67272;48.066;11.038;2023-07-16T10:07:58;2.35;;;1.80;;
39256;SDS011;67272;48.066;11.038;2023-07-16T10:10:42;1.75;;;1.65;;
39256;SDS011;67272;48.066;11.038;2023-07-16T10:13:10;1.60;;;1.50;;
39256;SDS011;67272;48.066;11.038;2023-07-16T10:15:38;2.17;;;1.98;;
39256;SDS011;67272;48.066;11.038;2023-07-16T10:18:11;1.80;;;1.70;;
39256;SDS011;67272;48.066;11.038;2023-07-16T10:20:37;1.80;;;1.70;;
39256;SDS011;67272;48.066;11.038;2023-07-16T10:23:14;2.15;;;1.63;;
39256;SDS011;67272;48.066;11.038;2023-07-16T10:25:56;2.00;;;1.80;;
39256;SDS011;67272;48.066;11.038;2023-07-16T10:28:35;2.38;;;1.83;;
39256;SDS011;67272;48.066;11.038;2023-07-16T10:31:01;2.35;;;1.63;;
39256;SDS011;67272;48.066;11.038;2023-07-16T10:33:28;1.73;;;1.63;;
39256;SDS011;67272;48.066;11.038;2023-07-16T10:35:55;2.25;;;1.98;;
39256;SDS011;67272;48.066;11.038;2023-07-16T10:38:22;2.38;;;2.17;;
39256;SDS011;67272;48.066;11.038;2023-07-16T10:40:51;2.03;;;1.83;;
39256;SDS011;67272;48.066;11.038;2023-07-16T10:43:24;2.55;;;1.70;;
39256;SDS011;67272;48.066;11.038;2023-07-16T10:45:51;1.95;;;1.75;;
39256;SDS011;67272;48.066;11.038;2023-07-16T10:48:26;2.20;;;2.00;;
39256;SDS011;67272;48.066;11.038;2023-07-16T10:50:53;1.80;;;1.70;;
39256;SDS011;67272;48.066;11.038;2023-07-16T10:53:23;2.05;;;1.90;;
39256;SDS011;67272;48.066;11.038;2023-07-16T10:55:49;1.98;;;1.88;;
39256;SDS011;67272;48.066;11.038;2023-07-16T10:58:21;2.03;;;1.73;;
39256;SDS011;67272;48.066;11.038;2023-07-16T11:00:47;2.22;;;2.03;;
39256;SDS011;67272;48.066;11.038;2023-07-16T11:03:20;1.90;;;1.80;;
39256;SDS011;67272;48.066;11.038;2023-07-16T11:05:49;2.00;;;1.63;;
39256;SDS011;67272;48.066;11.038;2023-07-16T11:08:24;2.10;;;2.00;;
39256;SDS011;67272;48.066;11.038;2023-07-16T11:11:00;2.30;;;2.03;;
39256;SDS011;67272;48.066;11.038;2023-07-16T11:13:33;2.15;;;1.80;;
39256;SDS011;67272;48.066;11.038;2023-07-16T11:16:06;2.05;;;1.95;;
39256;SDS011;67272;48.066;11.038;2023-07-16T11:18:36;1.90;;;1.80;;
39256;SDS011;67272;48.066;11.038;2023-07-16T11:21:05;2.05;;;1.85;;
39256;SDS011;67272;48.066;11.038;2023-07-16T11:23:35;1.85;;;1.75;;
39256;SDS011;67272;48.066;11.038;2023-07-16T11:26:02;1.80;;;1.70;;
39256;SDS011;67272;48.066;11.038;2023-07-16T11:28:38;1.60;;;1.50;;
39256;SDS011;67272;48.066;11.038;2023-07-16T11:31:14;2.22;;;2.03;;
39256;SDS011;67272;48.066;11.038;2023-07-16T11:33:44;2.15;;;1.95;;
39256;SDS011;67272;48.066;11.038;2023-07-16T11:36:11;1.92;;;1.83;;
39256;SDS011;67272;48.066;11.038;2023-07-16T11:38:38;2.08;;;1.88;;
39256;SDS011;67272;48.066;11.038;2023-07-16T11:41:07;2.63;;;2.10;;
39256;SDS011;67272;48.066;11.038;2023-07-16T11:43:37;2.05;;;1.90;;
39256;SDS011;67272;48.066;11.038;2023-07-16T11:46:18;1.92;;;1.83;;
39256;SDS011;67272;48.066;11.038;2023-07-16T11:48:45;1.83;;;1.73;;
39256;SDS011;67272;48.066;11.038;2023-07-16T11:51:14;1.85;;;1.75;;
39256;SDS011;67272;48.066;11.038;2023-07-16T11:53:44;1.98;;;1.77;;
39256;SDS011;67272;48.066;11.038;2023-07-16T11:56:13;1.73;;;1.63;;
39256;SDS011;67272;48.066;11.038;2023-07-16T11:58:39;2.05;;;1.85;;
39256;SDS011;67272;48.066;11.038;2023-07-16T12:01:06;2.00;;;1.50;;
39256;SDS011;67272;48.066;11.038;2023-07-16T12:03:35;2.10;;;1.73;;
39256;SDS011;67272;48.066;11.038;2023-07-16T12:06:01;1.73;;;1.63;;
39256;SDS011;67272;48.066;11.038;2023-07-16T12:08:34;1.90;;;1.52;;
39256;SDS011;67272;48.066;11.038;2023-07-16T12:11:00;2.20;;;1.98;;
39256;SDS011;67272;48.066;11.038;2023-07-16T12:13:26;1.83;;;1.63;;
39256;SDS011;67272;48.066;11.038;2023-07-16T12:15:52;1.80;;;1.50;;
39256;SDS011;67272;48.066;11.038;2023-07-16T12:18:22;1.92;;;1.83;;
39256;SDS011;67272;48.066;11.038;2023-07-16T12:20:48;1.70;;;1.60;;
39256;SDS011;67272;48.066;11.038;2023-07-16T12:23:14;2.88;;;1.75;;
39256;SDS011;67272;48.066;11.038;2023-07-16T12:25:40;1.60;;;1.50;;
39256;SDS011;67272;48.066;11.038;2023-07-16T12:28:08;2.17;;;1.63;;
39256;SDS011;67272;48.066;11.038;2023-07-16T12:30:35;2.03;;;1.83;;
39256;SDS011;67272;48.066;11.038;2023-07-16T12:33:01;1.50;;;1.40;;
39256;SDS011;67272;48.066;11.038;2023-07-16T12:35:29;1.63;;;1.52;;
39256;SDS011;67272;48.066;11.038;2023-07-16T12:37:55;1.63;;;1.52;;
39256;SDS011;67272;48.066;11.038;2023-07-16T12:40:23;1.92;;;1.80;;
39256;SDS011;67272;48.066;11.038;2023-07-16T12:42:49;1.80;;;1.70;;
39256;SDS011;67272;48.066;11.038;2023-07-16T12:45:15;1.80;;;1.70;;
39256;SDS011;67272;48.066;11.038;2023-07-16T12:47:45;1.92;;;1.65;;
39256;SDS011;67272;48.066;11.038;2023-07-16T12:50:11;1.83;;;1.60;;
39256;SDS011;67272;48.066;11.038;2023-07-16T12:52:38;1.60;;;1.50;;
39256;SDS011;67272;48.066;11.038;2023-07-16T12:55:04;1.52;;;1.42;;
39256;SDS011;67272;48.066;11.038;2023-07-16T12:57:30;1.73;;;1.58;;
39256;SDS011;67272;48.066;11.038;2023-07-16T12:59:57;1.95;;;1.80;;
39256;SDS011;67272;48.066;11.038;2023-07-16T13:02:23;1.83;;;1.60;;
39256;SDS011;67272;48.066;11.038;2023-07-16T13:04:49;1.80;;;1.70;;
39256;SDS011;67272;48.066;11.038;2023-07-16T13:07:16;1.90;;;1.80;;
39256;SDS011;67272;48.066;11.038;2023-07-16T13:09:42;2.05;;;1.80;;
39256;SDS011;67272;48.066;11.038;2023-07-16T13:12:08;1.92;;;1.70;;
39256;SDS011;67272;48.066;11.038;2023-07-16T13:14:34;2.15;;;1.65;;
39256;SDS011;67272;48.066;11.038;2023-07-16T13:17:01;1.80;;;1.70;;
39256;SDS011;67272;48.066;11.038;2023-07-16T13:19:29;1.88;;;1.70;;
39256;SDS011;67272;48.066;11.038;2023-07-16T13:21:55;2.15;;;2.03;;
39256;SDS011;67272;48.066;11.038;2023-07-16T13:24:21;1.88;;;1.70;;
39256;SDS011;67272;48.066;11.038;2023-07-16T13:26:47;2.17;;;1.98;;
39256;SDS011;67272;48.066;11.038;2023-07-16T13:29:20;1.88;;;1.77;;
39256;SDS011;67272;48.066;11.038;2023-07-16T13:31:46;2.38;;;2.00;;
39256;SDS011;67272;48.066;11.038;2023-07-16T13:34:12;2.00;;;1.90;;
39256;SDS011;67272;48.066;11.038;2023-07-16T13:36:38;2.50;;;1.90;;
39256;SDS011;67272;48.066;11.038;2023-07-16T13:39:04;1.90;;;1.77;;
39256;SDS011;67272;48.066;11.038;2023-07-16T13:41:31;2.33;;;2.13;;
39256;SDS011;67272;48.066;11.038;2023-07-16T13:43:57;1.73;;;1.60;;
39256;SDS011;67272;48.066;11.038;2023-07-16T13:46:23;2.08;;;1.98;;
39256;SDS011;67272;48.066;11.038;2023-07-16T13:48:49;1.90;;;1.80;;
39256;SDS011;67272;48.066;11.038;2023-07-16T13:51:15;1.85;;;1.70;;
39256;SDS011;67272;48.066;11.038;2023-07-16T13:53:41;1.80;;;1.70;;
39256;SDS011;67272;48.066;11.038;2023-07-16T13:56:07;2.15;;;1.90;;
39256;SDS011;67272;48.066;11.038;2023-07-16T13:58:37;2.10;;;1.90;;
39256;SDS011;67272;48.066;11.038;2023-07-16T14:01:03;2.53;;;1.95;;
39256;SDS011;67272;48.066;11.038;2023-07-16T14:03:30;2.00;;;1.90;;
39256;SDS011;67272;48.066;11.038;2023-07-16T14:05:59;2.38;;;2.17;;
39256;SDS011;67272;48.066;11.038;2023-07-16T14:08:25;2.72;;;2.28;;
39256;SDS011;67272;48.066;11.038;2023-07-16T14:10:53;2.38;;;1.98;;
39256;SDS011;67272;48.066;11.038;2023-07-16T14:13:20;2.28;;;2.08;;
39256;SDS011;67272;48.066;11.038;2023-07-16T14:15:46;2.00;;;1.90;;
39256;SDS011;67272;48.066;11.038;2023-07-16T14:18:12;2.10;;;2.00;;
39256;SDS011;67272;48.066;11.038;2023-07-16T14:20:38;2.28;;;2.15;;
39256;SDS011;67272;48.066;11.038;2023-07-16T14:23:04;2.30;;;2.10;;
39256;SDS011;67272;48.066;11.038;2023-07-16T14:25:31;2.03;;;1.90;;
39256;SDS011;67272;48.066;11.038;2023-07-16T14:27:57;2.22;;;2.08;;
39256;SDS011;67272;48.066;11.038;2023-07-16T14:30:24;2.20;;;1.98;;
39256;SDS011;67272;48.066;11.038;2023-07-16T14:32:50;2.17;;;1.98;;
39256;SDS011;67272;48.066;11.038;2023-07-16T14:35:16;2.35;;;2.15;;
39256;SDS011;67272;48.066;11.038;2023-07-16T14:37:42;4.10;;;2.10;;
39256;SDS011;67272;48.066;11.038;2023-07-16T14:40:09;2.38;;;2.13;;
39256;SDS011;67272;48.066;11.038;2023-07-16T14:42:35;2.33;;;2.13;;
39256;SDS011;67272;48.066;11.038;2023-07-16T14:45:01;1.90;;;1.80;;
39256;SDS011;67272;48.066;11.038;2023-07-16T14:47:29;2.25;;;2.05;;
39256;SDS011;67272;48.066;11.038;2023-07-16T14:49:55;2.42;;;2.17;;
39256;SDS011;67272;48.066;11.038;2023-07-16T14:52:22;2.00;;;1.90;;
39256;SDS011;67272;48.066;11.038;2023-07-16T14:54:51;2.67;;;2.03;;
39256;SDS011;67272;48.066;11.038;2023-07-16T14:57:17;2.17;;;1.98;;